sensor_id;sensor_type;location;lat;lon;timestamp;P1;durP1;ratioP1;P2;durP2;ratioP2
65825;SDS011;52586;-43.152;172.732;2022-12-18T00:00:25;1.40;;;1.30;;
65825;SDS011;52586;-43.152;172.732;2022-12-18T00:02:56;1.52;;;1.23;;
65825;SDS011;52586;-43.152;172.732;2022-12-18T00:05:26;1.38;;;1.20;;
65825;SDS011;52586;-43.152;172.732;2022-12-18T00:07:59;2.17;;;1.20;;
65825;SDS011;52586;-43.152;172.732;2022-12-18T00:10:30;1.10;;;1.00;;
65825;SDS011;52586;-43.152;172.732;2022-12-18T00:13:00;2.40;;;1.20;;
65825;SDS011;52586;-43.152;172.732;2022-12-18T00:15:33;1.50;;;1.00;;
65825;SDS011;52586;-43.152;172.732;2022-12-18T00:18:04;1.38;;;1.27;;
65825;SDS011;52586;-43.152;172.732;2022-12-18T00:20:36;1.88;;;1.20;;
65825;SDS011;52586;-43.152;172.732;2022-12-18T00:23:09;2.05;;;1.13;;
65825;SDS011;52586;-43.152;172.732;2022-12-18T00:25:40;2.03;;;1.10;;
65825;SDS011;52586;-43.152;172.732;2022-12-18T00:28:11;1.10;;;1.00;;
65825;SDS011;52586;-43.152;172.732;2022-12-18T00:30:41;1.73;;;1.00;;
65825;SDS011;52586;-43.152;172.732;2022-12-18T00:33:12;1.30;;;0.98;;
65825;SDS011;52586;-43.152;172.732;2022-12-18T00:35:43;1.17;;;0.90;;
65825;SDS011;52586;-43.152;172.732;2022-12-18T00:38:15;1.13;;;1.00;;
65825;SDS011;52586;-43.152;172.732;2022-12-18T00:40:46;1.10;;;0.90;;
65825;SDS011;52586;-43.152;172.732;2022-12-18T00:43:17;1.52;;;1.13;;
65825;SDS011;52586;-43.152;172.732;2022-12-18T00:45:46;1.40;;;1.00;;
65825;SDS011;52586;-43.152;172.732;2022-12-18T00:48:16;1.52;;;1.20;;
65825;SDS011;52586;-43.152;172.732;2022-12-18T00:50:47;2.00;;;1.35;;
65825;SDS011;52586;-43.152;172.732;2022-12-18T00:53:20;1.95;;;1.20;;
65825;SDS011;52586;-43.152;172.732;2022-12-18T00:55:51;1.20;;;0.95;;
65825;SDS011;52586;-43.152;172.732;2022-12-18T00:58:22;1.67;;;1.08;;
65825;SDS011;52586;-43.152;172.732;2022-12-18T01:00:53;1.27;;;1.00;;
65825;SDS011;52586;-43.152;172.732;2022-12-18T01:03:23;0.80;;;0.80;;
65825;SDS011;52586;-43.152;172.732;2022-12-18T01:05:54;1.60;;;1.00;;
65825;SDS011;52586;-43.152;172.732;2022-12-18T01:08:26;1.48;;;1.23;;
65825;SDS011;52586;-43.152;172.732;2022-12-18T01:10:57;1.42;;;0.90;;
65825;SDS011;52586;-43.152;172.732;2022-12-18T01:13:28;1.17;;;1.00;;
65825;SDS011;52586;-43.152;172.732;2022-12-18T01:15:59;1.00;;;0.77;;
65825;SDS011;52586;-43.152;172.732;2022-12-18T01:18:29;5.43;;;1.33;;
65825;SDS011;52586;-43.152;172.732;2022-12-18T01:21:00;1.20;;;1.10;;
65825;SDS011;52586;-43.152;172.732;2022-12-18T01:23:36;1.92;;;1.00;;
65825;SDS011;52586;-43.152;172.732;2022-12-18T01:26:07;2.45;;;1.15;;
65825;SDS011;52586;-43.152;172.732;2022-12-18T01:28:39;2.17;;;1.10;;
65825;SDS011;52586;-43.152;172.732;2022-12-18T01:31:12;0.73;;;0.73;;
65825;SDS011;52586;-43.152;172.732;2022-12-18T01:33:44;1.40;;;0.82;;
65825;SDS011;52586;-43.152;172.732;2022-12-18T01:36:16;1.00;;;0.90;;
65825;SDS011;52586;-43.152;172.732;2022-12-18T01:38:50;1.40;;;0.88;;
65825;SDS011;52586;-43.152;172.732;2022-12-18T01:41:22;1.33;;;0.80;;
65825;SDS011;52586;-43.152;172.732;2022-12-18T01:47:20;1.10;;;0.80;;
65825;SDS011;52586;-43.152;172.732;2022-12-18T01:49:53;0.90;;;0.90;;
65825;SDS011;52586;-43.152;172.732;2022-12-18T01:52:26;1.23;;;0.90;;
65825;SDS011;52586;-43.152;172.732;2022-12-18T01:55:01;1.17;;;0.88;;
65825;SDS011;52586;-43.152;172.732;2022-12-18T01:57:33;1.65;;;0.80;;
65825;SDS011;52586;-43.152;172.732;2022-12-18T02:00:07;1.30;;;0.90;;
65825;SDS011;52586;-43.152;172.732;2022-12-18T02:02:39;1.10;;;1.00;;
65825;SDS011;52586;-43.152;172.732;2022-12-18T02:05:10;1.17;;;0.93;;
65825;SDS011;52586;-43.152;172.732;2022-12-18T02:07:45;1.10;;;1.00;;
65825;SDS011;52586;-43.152;172.732;2022-12-18T02:10:27;1.20;;;0.73;;
65825;SDS011;52586;-43.152;172.732;2022-12-18T02:13:02;1.02;;;0.90;;
65825;SDS011;52586;-43.152;172.732;2022-12-18T02:15:39;1.33;;;0.70;;
65825;SDS011;52586;-43.152;172.732;2022-12-18T02:18:14;1.15;;;0.80;;
65825;SDS011;52586;-43.152;172.732;2022-12-18T02:20:49;0.90;;;0.75;;
65825;SDS011;52586;-43.152;172.732;2022-12-18T02:23:35;1.20;;;1.00;;
65825;SDS011;52586;-43.152;172.732;2022-12-18T02:26:18;1.20;;;0.98;;
65825;SDS011;52586;-43.152;172.732;2022-12-18T02:28:53;0.88;;;0.77;;
65825;SDS011;52586;-43.152;172.732;2022-12-18T02:31:28;0.70;;;0.70;;
65825;SDS011;52586;-43.152;172.732;2022-12-18T02:34:03;0.88;;;0.80;;
65825;SDS011;52586;-43.152;172.732;2022-12-18T02:36:36;0.80;;;0.75;;
65825;SDS011;52586;-43.152;172.732;2022-12-18T02:39:10;0.63;;;0.63;;
65825;SDS011;52586;-43.152;172.732;2022-12-18T02:41:44;0.90;;;0.80;;
65825;SDS011;52586;-43.152;172.732;2022-12-18T02:44:15;1.13;;;0.80;;
65825;SDS011;52586;-43.152;172.732;2022-12-18T02:46:46;1.13;;;0.90;;
65825;SDS011;52586;-43.152;172.732;2022-12-18T02:49:24;1.38;;;1.00;;
65825;SDS011;52586;-43.152;172.732;2022-12-18T02:52:02;2.03;;;1.50;;
65825;SDS011;52586;-43.152;172.732;2022-12-18T02:54:46;1.48;;;1.02;;
65825;SDS011;52586;-43.152;172.732;2022-12-18T02:57:28;0.82;;;0.70;;
65825;SDS011;52586;-43.152;172.732;2022-12-18T03:00:04;1.95;;;0.90;;
65825;SDS011;52586;-43.152;172.732;2022-12-18T03:02:40;1.83;;;0.85;;
65825;SDS011;52586;-43.152;172.732;2022-12-18T03:05:15;1.95;;;0.80;;
65825;SDS011;52586;-43.152;172.732;2022-12-18T03:07:50;1.27;;;0.73;;
65825;SDS011;52586;-43.152;172.732;2022-12-18T03:10:25;1.77;;;0.70;;
65825;SDS011;52586;-43.152;172.732;2022-12-18T03:13:02;0.90;;;0.73;;
65825;SDS011;52586;-43.152;172.732;2022-12-18T03:15:35;2.25;;;0.70;;
65825;SDS011;52586;-43.152;172.732;2022-12-18T03:18:10;1.00;;;0.80;;
65825;SDS011;52586;-43.152;172.732;2022-12-18T03:20:45;2.17;;;0.95;;
65825;SDS011;52586;-43.152;172.732;2022-12-18T03:23:19;1.55;;;0.90;;
65825;SDS011;52586;-43.152;172.732;2022-12-18T03:25:52;0.82;;;0.82;;
65825;SDS011;52586;-43.152;172.732;2022-12-18T03:28:30;0.90;;;0.73;;
65825;SDS011;52586;-43.152;172.732;2022-12-18T03:31:06;1.48;;;0.77;;
65825;SDS011;52586;-43.152;172.732;2022-12-18T03:33:41;1.02;;;0.80;;
65825;SDS011;52586;-43.152;172.732;2022-12-18T03:36:15;1.52;;;0.85;;
65825;SDS011;52586;-43.152;172.732;2022-12-18T03:38:46;1.23;;;0.75;;
65825;SDS011;52586;-43.152;172.732;2022-12-18T03:41:18;1.35;;;0.98;;
65825;SDS011;52586;-43.152;172.732;2022-12-18T03:43:58;1.08;;;0.75;;
65825;SDS011;52586;-43.152;172.732;2022-12-18T03:46:37;1.10;;;0.68;;
65825;SDS011;52586;-43.152;172.732;2022-12-18T03:49:16;0.80;;;0.80;;
65825;SDS011;52586;-43.152;172.732;2022-12-18T03:51:53;1.30;;;0.82;;
65825;SDS011;52586;-43.152;172.732;2022-12-18T03:54:29;1.00;;;0.80;;
65825;SDS011;52586;-43.152;172.732;2022-12-18T03:57:03;0.75;;;0.63;;
65825;SDS011;52586;-43.152;172.732;2022-12-18T03:59:38;1.15;;;0.80;;
65825;SDS011;52586;-43.152;172.732;2022-12-18T04:02:10;1.15;;;0.88;;
65825;SDS011;52586;-43.152;172.732;2022-12-18T04:04:42;1.30;;;0.70;;
65825;SDS011;52586;-43.152;172.732;2022-12-18T04:07:16;1.17;;;0.70;;
65825;SDS011;52586;-43.152;172.732;2022-12-18T04:09:49;0.93;;;0.70;;
65825;SDS011;52586;-43.152;172.732;2022-12-18T04:12:21;1.10;;;0.77;;
65825;SDS011;52586;-43.152;172.732;2022-12-18T04:14:56;1.55;;;0.70;;
65825;SDS011;52586;-43.152;172.732;2022-12-18T04:17:27;0.63;;;0.60;;
65825;SDS011;52586;-43.152;172.732;2022-12-18T04:19:57;1.17;;;0.50;;
65825;SDS011;52586;-43.152;172.732;2022-12-18T04:22:28;2.05;;;0.77;;
65825;SDS011;52586;-43.152;172.732;2022-12-18T04:24:59;1.55;;;0.65;;
65825;SDS011;52586;-43.152;172.732;2022-12-18T04:27:29;1.65;;;0.77;;
65825;SDS011;52586;-43.152;172.732;2022-12-18T04:30:02;1.30;;;0.90;;
65825;SDS011;52586;-43.152;172.732;2022-12-18T04:32:34;1.38;;;0.85;;
65825;SDS011;52586;-43.152;172.732;2022-12-18T04:35:05;0.98;;;0.85;;
65825;SDS011;52586;-43.152;172.732;2022-12-18T04:37:36;1.77;;;0.80;;
65825;SDS011;52586;-43.152;172.732;2022-12-18T04:40:07;2.10;;;0.85;;
65825;SDS011;52586;-43.152;172.732;2022-12-18T04:42:39;1.15;;;0.80;;
65825;SDS011;52586;-43.152;172.732;2022-12-18T04:45:11;1.13;;;0.80;;
65825;SDS011;52586;-43.152;172.732;2022-12-18T04:47:42;1.48;;;0.80;;
65825;SDS011;52586;-43.152;172.732;2022-12-18T04:50:13;1.23;;;0.80;;
65825;SDS011;52586;-43.152;172.732;2022-12-18T04:52:44;1.90;;;0.80;;
65825;SDS011;52586;-43.152;172.732;2022-12-18T04:55:14;0.65;;;0.65;;
65825;SDS011;52586;-43.152;172.732;2022-12-18T04:57:45;0.65;;;0.57;;
65825;SDS011;52586;-43.152;172.732;2022-12-18T05:00:18;1.05;;;0.70;;
65825;SDS011;52586;-43.152;172.732;2022-12-18T05:02:49;1.42;;;0.80;;
65825;SDS011;52586;-43.152;172.732;2022-12-18T05:05:20;1.27;;;0.80;;
65825;SDS011;52586;-43.152;172.732;2022-12-18T05:07:50;1.55;;;0.85;;
65825;SDS011;52586;-43.152;172.732;2022-12-18T05:10:21;0.88;;;0.80;;
65825;SDS011;52586;-43.152;172.732;2022-12-18T05:12:52;0.80;;;0.80;;
65825;SDS011;52586;-43.152;172.732;2022-12-18T05:15:31;1.02;;;0.70;;
65825;SDS011;52586;-43.152;172.732;2022-12-18T05:18:02;1.58;;;0.80;;
65825;SDS011;52586;-43.152;172.732;2022-12-18T05:20:33;0.60;;;0.60;;
65825;SDS011;52586;-43.152;172.732;2022-12-18T05:23:04;1.08;;;0.70;;
65825;SDS011;52586;-43.152;172.732;2022-12-18T05:25:34;1.25;;;0.70;;
65825;SDS011;52586;-43.152;172.732;2022-12-18T05:28:05;0.80;;;0.70;;
65825;SDS011;52586;-43.152;172.732;2022-12-18T05:30:38;1.25;;;0.80;;
65825;SDS011;52586;-43.152;172.732;2022-12-18T05:33:08;1.08;;;0.70;;
65825;SDS011;52586;-43.152;172.732;2022-12-18T05:35:39;1.75;;;0.95;;
65825;SDS011;52586;-43.152;172.732;2022-12-18T05:38:10;0.80;;;0.75;;
65825;SDS011;52586;-43.152;172.732;2022-12-18T05:40:41;0.75;;;0.60;;
65825;SDS011;52586;-43.152;172.732;2022-12-18T05:43:12;1.23;;;0.80;;
65825;SDS011;52586;-43.152;172.732;2022-12-18T05:45:45;0.73;;;0.70;;
65825;SDS011;52586;-43.152;172.732;2022-12-18T05:48:16;1.25;;;0.80;;
65825;SDS011;52586;-43.152;172.732;2022-12-18T05:50:47;1.13;;;0.82;;
65825;SDS011;52586;-43.152;172.732;2022-12-18T05:53:19;0.65;;;0.65;;
65825;SDS011;52586;-43.152;172.732;2022-12-18T05:55:50;1.17;;;0.60;;
65825;SDS011;52586;-43.152;172.732;2022-12-18T05:58:20;1.02;;;0.85;;
65825;SDS011;52586;-43.152;172.732;2022-12-18T06:00:53;1.13;;;0.70;;
65825;SDS011;52586;-43.152;172.732;2022-12-18T06:03:24;1.38;;;0.80;;
65825;SDS011;52586;-43.152;172.732;2022-12-18T06:05:54;0.60;;;0.60;;
65825;SDS011;52586;-43.152;172.732;2022-12-18T06:08:25;1.45;;;0.70;;
65825;SDS011;52586;-43.152;172.732;2022-12-18T06:10:56;0.73;;;0.60;;
65825;SDS011;52586;-43.152;172.732;2022-12-18T06:13:26;1.35;;;0.75;;
65825;SDS011;52586;-43.152;172.732;2022-12-18T06:15:59;1.27;;;0.70;;
65825;SDS011;52586;-43.152;172.732;2022-12-18T06:18:32;0.65;;;0.60;;
65825;SDS011;52586;-43.152;172.732;2022-12-18T06:21:03;0.90;;;0.68;;
65825;SDS011;52586;-43.152;172.732;2022-12-18T06:23:34;1.05;;;0.80;;
65825;SDS011;52586;-43.152;172.732;2022-12-18T06:26:06;1.75;;;0.77;;
65825;SDS011;52586;-43.152;172.732;2022-12-18T06:28:37;1.02;;;0.77;;
65825;SDS011;52586;-43.152;172.732;2022-12-18T06:31:10;0.70;;;0.70;;
65825;SDS011;52586;-43.152;172.732;2022-12-18T06:33:41;0.90;;;0.70;;
65825;SDS011;52586;-43.152;172.732;2022-12-18T06:36:12;0.73;;;0.60;;
65825;SDS011;52586;-43.152;172.732;2022-12-18T06:38:43;1.23;;;0.85;;
65825;SDS011;52586;-43.152;172.732;2022-12-18T06:41:14;0.95;;;0.68;;
65825;SDS011;52586;-43.152;172.732;2022-12-18T06:43:46;1.10;;;0.73;;
65825;SDS011;52586;-43.152;172.732;2022-12-18T06:46:19;0.60;;;0.60;;
65825;SDS011;52586;-43.152;172.732;2022-12-18T06:48:49;1.55;;;0.80;;
65825;SDS011;52586;-43.152;172.732;2022-12-18T06:51:21;1.13;;;0.80;;
65825;SDS011;52586;-43.152;172.732;2022-12-18T06:53:52;1.00;;;0.60;;
65825;SDS011;52586;-43.152;172.732;2022-12-18T06:56:22;1.27;;;0.80;;
65825;SDS011;52586;-43.152;172.732;2022-12-18T06:58:53;1.42;;;0.75;;
65825;SDS011;52586;-43.152;172.732;2022-12-18T07:01:26;1.42;;;0.80;;
65825;SDS011;52586;-43.152;172.732;2022-12-18T07:03:56;1.70;;;1.00;;
65825;SDS011;52586;-43.152;172.732;2022-12-18T07:06:27;1.20;;;0.90;;
65825;SDS011;52586;-43.152;172.732;2022-12-18T07:08:58;0.85;;;0.60;;
65825;SDS011;52586;-43.152;172.732;2022-12-18T07:11:28;0.70;;;0.60;;
65825;SDS011;52586;-43.152;172.732;2022-12-18T07:14:01;1.00;;;0.70;;
65825;SDS011;52586;-43.152;172.732;2022-12-18T07:16:34;1.27;;;0.90;;
65825;SDS011;52586;-43.152;172.732;2022-12-18T07:19:04;0.82;;;0.60;;
65825;SDS011;52586;-43.152;172.732;2022-12-18T07:21:35;1.00;;;0.77;;
65825;SDS011;52586;-43.152;172.732;2022-12-18T07:24:06;2.47;;;0.80;;
65825;SDS011;52586;-43.152;172.732;2022-12-18T07:26:37;1.20;;;0.68;;
65825;SDS011;52586;-43.152;172.732;2022-12-18T07:29:08;1.02;;;0.70;;
65825;SDS011;52586;-43.152;172.732;2022-12-18T07:31:40;1.70;;;0.82;;
65825;SDS011;52586;-43.152;172.732;2022-12-18T07:34:11;0.85;;;0.70;;
65825;SDS011;52586;-43.152;172.732;2022-12-18T07:36:42;1.20;;;0.93;;
65825;SDS011;52586;-43.152;172.732;2022-12-18T07:39:13;0.88;;;0.70;;
65825;SDS011;52586;-43.152;172.732;2022-12-18T07:41:44;1.77;;;0.70;;
65825;SDS011;52586;-43.152;172.732;2022-12-18T07:44:35;2.03;;;1.00;;
65825;SDS011;52586;-43.152;172.732;2022-12-18T07:47:08;1.75;;;0.77;;
65825;SDS011;52586;-43.152;172.732;2022-12-18T07:49:38;1.50;;;0.80;;
65825;SDS011;52586;-43.152;172.732;2022-12-18T07:52:09;0.63;;;0.63;;
65825;SDS011;52586;-43.152;172.732;2022-12-18T07:54:41;1.65;;;1.05;;
65825;SDS011;52586;-43.152;172.732;2022-12-18T07:57:14;1.25;;;0.93;;
65825;SDS011;52586;-43.152;172.732;2022-12-18T07:59:45;1.35;;;1.20;;
65825;SDS011;52586;-43.152;172.732;2022-12-18T08:02:21;1.52;;;0.95;;
65825;SDS011;52586;-43.152;172.732;2022-12-18T08:04:55;1.23;;;0.80;;
65825;SDS011;52586;-43.152;172.732;2022-12-18T08:07:28;0.90;;;0.70;;
65825;SDS011;52586;-43.152;172.732;2022-12-18T08:10:00;1.73;;;1.27;;
65825;SDS011;52586;-43.152;172.732;2022-12-18T08:12:31;1.23;;;1.13;;
65825;SDS011;52586;-43.152;172.732;2022-12-18T08:15:03;1.67;;;1.10;;
65825;SDS011;52586;-43.152;172.732;2022-12-18T08:17:36;1.30;;;1.13;;
65825;SDS011;52586;-43.152;172.732;2022-12-18T08:20:08;1.30;;;1.20;;
65825;SDS011;52586;-43.152;172.732;2022-12-18T08:22:40;6.35;;;1.25;;
65825;SDS011;52586;-43.152;172.732;2022-12-18T08:25:11;4.78;;;1.33;;
65825;SDS011;52586;-43.152;172.732;2022-12-18T08:27:43;2.67;;;1.48;;
65825;SDS011;52586;-43.152;172.732;2022-12-18T08:30:14;3.10;;;1.45;;
65825;SDS011;52586;-43.152;172.732;2022-12-18T08:32:51;7.07;;;1.85;;
65825;SDS011;52586;-43.152;172.732;2022-12-18T08:35:22;3.72;;;1.70;;
65825;SDS011;52586;-43.152;172.732;2022-12-18T08:37:54;3.42;;;1.45;;
65825;SDS011;52586;-43.152;172.732;2022-12-18T08:40:25;4.18;;;1.83;;
65825;SDS011;52586;-43.152;172.732;2022-12-18T08:43:01;4.90;;;1.88;;
65825;SDS011;52586;-43.152;172.732;2022-12-18T08:45:44;2.50;;;1.67;;
65825;SDS011;52586;-43.152;172.732;2022-12-18T08:48:17;2.42;;;1.52;;
65825;SDS011;52586;-43.152;172.732;2022-12-18T08:50:53;7.07;;;2.63;;
65825;SDS011;52586;-43.152;172.732;2022-12-18T08:53:24;6.40;;;2.83;;
65825;SDS011;52586;-43.152;172.732;2022-12-18T08:55:56;5.28;;;2.63;;
65825;SDS011;52586;-43.152;172.732;2022-12-18T08:58:27;4.38;;;2.80;;
65825;SDS011;52586;-43.152;172.732;2022-12-18T09:00:59;3.88;;;2.00;;
65825;SDS011;52586;-43.152;172.732;2022-12-18T09:03:32;4.30;;;2.20;;
65825;SDS011;52586;-43.152;172.732;2022-12-18T09:06:03;4.90;;;2.38;;
65825;SDS011;52586;-43.152;172.732;2022-12-18T09:08:36;4.65;;;2.65;;
65825;SDS011;52586;-43.152;172.732;2022-12-18T09:11:10;5.15;;;2.38;;
65825;SDS011;52586;-43.152;172.732;2022-12-18T09:13:44;3.38;;;2.38;;
65825;SDS011;52586;-43.152;172.732;2022-12-18T09:16:18;3.60;;;2.25;;
65825;SDS011;52586;-43.152;172.732;2022-12-18T09:18:54;4.05;;;2.42;;
65825;SDS011;52586;-43.152;172.732;2022-12-18T09:21:27;6.75;;;3.60;;
65825;SDS011;52586;-43.152;172.732;2022-12-18T09:23:59;4.90;;;3.45;;
65825;SDS011;52586;-43.152;172.732;2022-12-18T09:26:30;6.47;;;3.67;;
65825;SDS011;52586;-43.152;172.732;2022-12-18T09:29:01;4.85;;;3.38;;
65825;SDS011;52586;-43.152;172.732;2022-12-18T09:31:33;4.97;;;3.05;;
65825;SDS011;52586;-43.152;172.732;2022-12-18T09:34:05;4.20;;;3.30;;
65825;SDS011;52586;-43.152;172.732;2022-12-18T09:36:37;4.63;;;3.22;;
65825;SDS011;52586;-43.152;172.732;2022-12-18T09:39:07;5.65;;;3.05;;
65825;SDS011;52586;-43.152;172.732;2022-12-18T09:41:42;3.78;;;2.60;;
65825;SDS011;52586;-43.152;172.732;2022-12-18T09:44:19;5.60;;;3.10;;
65825;SDS011;52586;-43.152;172.732;2022-12-18T09:46:58;4.97;;;3.17;;
65825;SDS011;52586;-43.152;172.732;2022-12-18T09:49:39;4.40;;;2.83;;
65825;SDS011;52586;-43.152;172.732;2022-12-18T09:52:14;4.63;;;2.80;;
65825;SDS011;52586;-43.152;172.732;2022-12-18T09:54:49;5.13;;;2.75;;
65825;SDS011;52586;-43.152;172.732;2022-12-18T09:57:25;4.07;;;2.72;;
65825;SDS011;52586;-43.152;172.732;2022-12-18T10:00:02;4.18;;;3.03;;
65825;SDS011;52586;-43.152;172.732;2022-12-18T10:02:38;3.95;;;3.00;;
65825;SDS011;52586;-43.152;172.732;2022-12-18T10:05:12;4.80;;;2.75;;
65825;SDS011;52586;-43.152;172.732;2022-12-18T10:07:47;4.93;;;3.08;;
65825;SDS011;52586;-43.152;172.732;2022-12-18T10:10:30;3.78;;;2.70;;
65825;SDS011;52586;-43.152;172.732;2022-12-18T10:13:10;3.80;;;2.38;;
65825;SDS011;52586;-43.152;172.732;2022-12-18T10:15:50;4.72;;;2.72;;
65825;SDS011;52586;-43.152;172.732;2022-12-18T10:18:36;3.67;;;2.92;;
65825;SDS011;52586;-43.152;172.732;2022-12-18T10:21:28;4.07;;;2.58;;
65825;SDS011;52586;-43.152;172.732;2022-12-18T10:24:03;3.35;;;2.80;;
65825;SDS011;52586;-43.152;172.732;2022-12-18T10:26:46;3.78;;;3.00;;
65825;SDS011;52586;-43.152;172.732;2022-12-18T10:29:17;3.63;;;2.53;;
65825;SDS011;52586;-43.152;172.732;2022-12-18T10:31:48;3.83;;;2.67;;
65825;SDS011;52586;-43.152;172.732;2022-12-18T10:34:19;3.78;;;2.85;;
65825;SDS011;52586;-43.152;172.732;2022-12-18T10:36:51;4.35;;;2.38;;
65825;SDS011;52586;-43.152;172.732;2022-12-18T10:39:22;3.05;;;2.35;;
65825;SDS011;52586;-43.152;172.732;2022-12-18T10:41:57;3.13;;;2.67;;
65825;SDS011;52586;-43.152;172.732;2022-12-18T10:44:40;3.30;;;2.30;;
65825;SDS011;52586;-43.152;172.732;2022-12-18T10:47:12;3.05;;;2.47;;
65825;SDS011;52586;-43.152;172.732;2022-12-18T10:49:47;2.97;;;2.15;;
65825;SDS011;52586;-43.152;172.732;2022-12-18T10:52:24;3.85;;;2.28;;
65825;SDS011;52586;-43.152;172.732;2022-12-18T10:54:57;3.42;;;2.50;;
65825;SDS011;52586;-43.152;172.732;2022-12-18T10:57:31;3.25;;;2.25;;
65825;SDS011;52586;-43.152;172.732;2022-12-18T11:02:53;2.47;;;2.10;;
65825;SDS011;52586;-43.152;172.732;2022-12-18T11:05:26;2.70;;;2.03;;
65825;SDS011;52586;-43.152;172.732;2022-12-18T11:08:00;3.67;;;2.50;;
65825;SDS011;52586;-43.152;172.732;2022-12-18T11:10:32;3.72;;;2.33;;
65825;SDS011;52586;-43.152;172.732;2022-12-18T11:13:12;3.75;;;1.98;;
65825;SDS011;52586;-43.152;172.732;2022-12-18T11:15:47;3.03;;;2.33;;
65825;SDS011;52586;-43.152;172.732;2022-12-18T11:18:18;3.05;;;2.10;;
65825;SDS011;52586;-43.152;172.732;2022-12-18T11:20:54;3.53;;;2.40;;
65825;SDS011;52586;-43.152;172.732;2022-12-18T11:23:28;2.83;;;2.10;;
65825;SDS011;52586;-43.152;172.732;2022-12-18T11:25:59;3.42;;;2.10;;
65825;SDS011;52586;-43.152;172.732;2022-12-18T11:28:37;3.05;;;2.03;;
65825;SDS011;52586;-43.152;172.732;2022-12-18T11:31:17;2.95;;;2.00;;
65825;SDS011;52586;-43.152;172.732;2022-12-18T11:33:55;2.53;;;1.77;;
65825;SDS011;52586;-43.152;172.732;2022-12-18T11:36:32;2.45;;;2.20;;
65825;SDS011;52586;-43.152;172.732;2022-12-18T11:39:09;2.45;;;1.85;;
65825;SDS011;52586;-43.152;172.732;2022-12-18T11:41:46;2.92;;;1.95;;
65825;SDS011;52586;-43.152;172.732;2022-12-18T11:44:42;2.25;;;1.80;;
65825;SDS011;52586;-43.152;172.732;2022-12-18T11:47:20;2.38;;;1.70;;
65825;SDS011;52586;-43.152;172.732;2022-12-18T11:49:56;1.88;;;1.60;;
65825;SDS011;52586;-43.152;172.732;2022-12-18T11:52:32;1.90;;;1.70;;
65825;SDS011;52586;-43.152;172.732;2022-12-18T11:55:10;2.97;;;1.65;;
65825;SDS011;52586;-43.152;172.732;2022-12-18T11:57:44;4.07;;;2.10;;
65825;SDS011;52586;-43.152;172.732;2022-12-18T12:00:23;2.35;;;1.80;;
65825;SDS011;52586;-43.152;172.732;2022-12-18T12:03:09;1.98;;;1.67;;
65825;SDS011;52586;-43.152;172.732;2022-12-18T12:06:03;3.28;;;1.65;;
65825;SDS011;52586;-43.152;172.732;2022-12-18T12:08:44;2.83;;;1.75;;
65825;SDS011;52586;-43.152;172.732;2022-12-18T12:11:27;2.40;;;1.80;;
65825;SDS011;52586;-43.152;172.732;2022-12-18T12:14:13;1.98;;;1.73;;
65825;SDS011;52586;-43.152;172.732;2022-12-18T12:16:54;2.22;;;1.65;;
65825;SDS011;52586;-43.152;172.732;2022-12-18T12:19:34;1.52;;;1.42;;
65825;SDS011;52586;-43.152;172.732;2022-12-18T12:22:13;1.85;;;1.60;;
65825;SDS011;52586;-43.152;172.732;2022-12-18T12:24:52;2.38;;;1.80;;
65825;SDS011;52586;-43.152;172.732;2022-12-18T12:27:37;1.63;;;1.45;;
65825;SDS011;52586;-43.152;172.732;2022-12-18T12:30:17;1.58;;;1.30;;
65825;SDS011;52586;-43.152;172.732;2022-12-18T12:32:53;1.85;;;1.50;;
65825;SDS011;52586;-43.152;172.732;2022-12-18T12:35:37;1.83;;;1.50;;
65825;SDS011;52586;-43.152;172.732;2022-12-18T12:38:16;1.73;;;1.60;;
65825;SDS011;52586;-43.152;172.732;2022-12-18T12:40:52;1.67;;;1.27;;
65825;SDS011;52586;-43.152;172.732;2022-12-18T12:43:31;1.60;;;1.40;;
65825;SDS011;52586;-43.152;172.732;2022-12-18T12:46:06;1.92;;;1.70;;
65825;SDS011;52586;-43.152;172.732;2022-12-18T12:48:40;2.08;;;1.50;;
65825;SDS011;52586;-43.152;172.732;2022-12-18T12:51:16;2.38;;;1.40;;
65825;SDS011;52586;-43.152;172.732;2022-12-18T12:53:49;2.10;;;1.40;;
65825;SDS011;52586;-43.152;172.732;2022-12-18T12:56:21;1.40;;;1.23;;
65825;SDS011;52586;-43.152;172.732;2022-12-18T12:59:01;1.50;;;1.40;;
65825;SDS011;52586;-43.152;172.732;2022-12-18T13:01:40;2.33;;;1.60;;
65825;SDS011;52586;-43.152;172.732;2022-12-18T13:04:20;1.33;;;1.20;;
65825;SDS011;52586;-43.152;172.732;2022-12-18T13:06:58;1.88;;;1.25;;
65825;SDS011;52586;-43.152;172.732;2022-12-18T13:09:32;2.15;;;1.40;;
65825;SDS011;52586;-43.152;172.732;2022-12-18T13:12:23;1.23;;;1.13;;
65825;SDS011;52586;-43.152;172.732;2022-12-18T13:15:19;2.30;;;1.25;;
65825;SDS011;52586;-43.152;172.732;2022-12-18T13:18:03;1.30;;;1.10;;
65825;SDS011;52586;-43.152;172.732;2022-12-18T13:20:43;1.40;;;1.30;;
65825;SDS011;52586;-43.152;172.732;2022-12-18T13:23:32;1.42;;;1.13;;
65825;SDS011;52586;-43.152;172.732;2022-12-18T13:29:03;1.30;;;1.10;;
65825;SDS011;52586;-43.152;172.732;2022-12-18T13:37:52;1.35;;;1.13;;
65825;SDS011;52586;-43.152;172.732;2022-12-18T13:43:27;2.15;;;1.40;;
65825;SDS011;52586;-43.152;172.732;2022-12-18T13:46:02;2.03;;;1.30;;
65825;SDS011;52586;-43.152;172.732;2022-12-18T13:48:56;1.40;;;1.17;;
65825;SDS011;52586;-43.152;172.732;2022-12-18T13:51:29;1.10;;;1.00;;
65825;SDS011;52586;-43.152;172.732;2022-12-18T13:54:02;1.17;;;1.05;;
65825;SDS011;52586;-43.152;172.732;2022-12-18T13:56:45;1.58;;;1.33;;
65825;SDS011;52586;-43.152;172.732;2022-12-18T13:59:19;1.77;;;1.00;;
65825;SDS011;52586;-43.152;172.732;2022-12-18T14:01:52;1.98;;;1.10;;
65825;SDS011;52586;-43.152;172.732;2022-12-18T14:04:26;1.17;;;1.08;;
65825;SDS011;52586;-43.152;172.732;2022-12-18T14:07:00;1.33;;;1.00;;
65825;SDS011;52586;-43.152;172.732;2022-12-18T14:09:34;1.35;;;1.10;;
65825;SDS011;52586;-43.152;172.732;2022-12-18T14:12:12;1.30;;;1.00;;
65825;SDS011;52586;-43.152;172.732;2022-12-18T14:15:02;1.35;;;1.10;;
65825;SDS011;52586;-43.152;172.732;2022-12-18T14:17:35;1.17;;;1.08;;
65825;SDS011;52586;-43.152;172.732;2022-12-18T14:20:14;0.82;;;0.82;;
65825;SDS011;52586;-43.152;172.732;2022-12-18T14:22:46;1.48;;;1.02;;
65825;SDS011;52586;-43.152;172.732;2022-12-18T14:25:19;1.20;;;0.90;;
65825;SDS011;52586;-43.152;172.732;2022-12-18T14:27:51;1.00;;;0.90;;
65825;SDS011;52586;-43.152;172.732;2022-12-18T14:30:35;1.00;;;0.90;;
65825;SDS011;52586;-43.152;172.732;2022-12-18T14:33:08;2.35;;;1.00;;
65825;SDS011;52586;-43.152;172.732;2022-12-18T14:35:43;1.20;;;1.10;;
65825;SDS011;52586;-43.152;172.732;2022-12-18T14:38:23;1.10;;;1.00;;
65825;SDS011;52586;-43.152;172.732;2022-12-18T14:40:56;1.17;;;0.98;;
65825;SDS011;52586;-43.152;172.732;2022-12-18T14:43:29;1.02;;;0.90;;
65825;SDS011;52586;-43.152;172.732;2022-12-18T14:46:02;1.05;;;0.90;;
65825;SDS011;52586;-43.152;172.732;2022-12-18T14:48:35;1.05;;;0.95;;
65825;SDS011;52586;-43.152;172.732;2022-12-18T14:51:14;0.98;;;0.85;;
65825;SDS011;52586;-43.152;172.732;2022-12-18T14:53:47;1.00;;;0.90;;
65825;SDS011;52586;-43.152;172.732;2022-12-18T14:56:22;1.00;;;0.90;;
65825;SDS011;52586;-43.152;172.732;2022-12-18T14:58:54;0.90;;;0.80;;
65825;SDS011;52586;-43.152;172.732;2022-12-18T15:01:27;1.35;;;1.00;;
65825;SDS011;52586;-43.152;172.732;2022-12-18T15:04:00;1.20;;;1.10;;
65825;SDS011;52586;-43.152;172.732;2022-12-18T15:06:35;1.25;;;0.90;;